Time;durP1;ratioP1;P1;durP2;ratioP2;P2;SDS_P1;SDS_P2;PMS_P1;PMS_P2;Temp;Humidity;BMP_temperature;BMP_pressure;BME280_temperature;BME280_humidity;BME280_pressure;Samples;Min_cycle;Max_cycle;Signal;HPM_P1;HPM_P2
2024/02/01 00:00:38;;;;;;;1203.43;838.22;;;;;;;;;;7348072;19;20349;-24
2024/02/01 00:03:08;;;;;;;1184.75;830.22;;;;;;;;;;7328151;19;20317;-24
2024/02/01 00:05:37;;;;;;;1180.07;830.07;;;;;;;;;;7348386;19;20432;-25
2024/02/01 00:08:07;;;;;;;1172.47;829.47;;;;;;;;;;7326356;19;20297;-27
2024/02/01 00:10:36;;;;;;;1170.78;823.20;;;;;;;;;;7348410;19;20872;-29
2024/02/01 00:13:09;;;;;;;1154.73;818.67;;;;;;;;;;7324462;19;20844;-22
2024/02/01 00:15:39;;;;;;;1151.15;819.80;;;;;;;;;;7348688;19;20382;-25
2024/02/01 00:18:08;;;;;;;1144.23;813.77;;;;;;;;;;7327640;19;20307;-21
2024/02/01 00:20:38;;;;;;;1136.93;806.55;;;;;;;;;;7348421;19;21299;-21
2024/02/01 00:23:07;;;;;;;1129.40;802.33;;;;;;;;;;7323699;19;20296;-24
2024/02/01 00:25:37;;;;;;;1123.93;797.95;;;;;;;;;;7350103;19;20312;-24
2024/02/01 00:28:09;;;;;;;1125.00;799.50;;;;;;;;;;7325669;19;20301;-26
2024/02/01 00:30:41;;;;;;;1113.28;797.80;;;;;;;;;;7348678;19;20396;-23
2024/02/01 00:33:10;;;;;;;1117.23;795.07;;;;;;;;;;7327575;19;20293;-23
2024/02/01 00:35:40;;;;;;;1103.93;792.78;;;;;;;;;;7347275;19;20860;-26
2024/02/01 00:38:09;;;;;;;1102.30;789.20;;;;;;;;;;7326816;19;20324;-23
2024/02/01 00:40:39;;;;;;;1090.65;784.15;;;;;;;;;;7347970;19;20408;-23
2024/02/01 00:43:11;;;;;;;1084.90;781.92;;;;;;;;;;7326984;19;20297;-25
2024/02/01 00:45:40;;;;;;;1082.30;776.90;;;;;;;;;;7347343;19;20382;-24
2024/02/01 00:48:10;;;;;;;1081.93;776.38;;;;;;;;;;7326941;19;20360;-23
2024/02/01 00:50:39;;;;;;;1077.45;774.75;;;;;;;;;;7347125;19;20344;-23
2024/02/01 00:53:09;;;;;;;1074.30;768.92;;;;;;;;;;7325860;19;20354;-24
2024/02/01 00:55:38;;;;;;;1075.35;771.00;;;;;;;;;;7347614;19;20388;-25
2024/02/01 00:58:10;;;;;;;1064.25;765.92;;;;;;;;;;7326076;19;20952;-24
2024/02/01 01:00:40;;;;;;;1055.57;762.47;;;;;;;;;;7346687;19;20844;-27
2024/02/01 01:03:09;;;;;;;1061.38;762.63;;;;;;;;;;7323800;19;20305;-24
2024/02/01 01:05:39;;;;;;;1044.85;757.30;;;;;;;;;;7346569;19;20400;-24
2024/02/01 01:08:08;;;;;;;1045.93;760.03;;;;;;;;;;7326672;19;20297;-25
2024/02/01 01:10:38;;;;;;;1042.18;759.83;;;;;;;;;;7346733;19;20341;-26
2024/02/01 01:13:07;;;;;;;1043.40;751.70;;;;;;;;;;7324436;19;20372;-22
2024/02/01 01:15:39;;;;;;;1033.50;751.30;;;;;;;;;;7346720;19;20337;-23
2024/02/01 01:18:09;;;;;;;1034.75;752.55;;;;;;;;;;7325839;19;20311;-21
2024/02/01 01:20:38;;;;;;;1028.53;742.88;;;;;;;;;;7346604;19;20325;-25
2024/02/01 01:23:08;;;;;;;1024.45;743.15;;;;;;;;;;7325155;19;20425;-26
2024/02/01 01:25:37;;;;;;;1022.20;740.25;;;;;;;;;;7345904;19;20412;-27
2024/02/01 01:28:07;;;;;;;1006.70;734.30;;;;;;;;;;7323163;19;20391;-24
2024/02/01 01:30:39;;;;;;;1006.42;734.00;;;;;;;;;;7346060;19;20875;-23
2024/02/01 01:33:08;;;;;;;1000.40;727.77;;;;;;;;;;7325093;19;20872;-24
2024/02/01 01:35:38;;;;;;;999.78;729.88;;;;;;;;;;7345962;19;20396;-24
2024/02/01 01:38:07;;;;;;;993.50;723.55;;;;;;;;;;7325855;19;20303;-25
2024/02/01 01:40:37;;;;;;;988.60;722.53;;;;;;;;;;7345528;19;20325;-24
2024/02/01 01:43:06;;;;;;;987.17;721.90;;;;;;;;;;7324696;19;20388;-23
2024/02/01 01:45:36;;;;;;;981.88;718.78;;;;;;;;;;7346877;19;20719;-26
2024/02/01 01:48:08;;;;;;;977.67;711.78;;;;;;;;;;7324671;19;20288;-25
2024/02/01 01:50:38;;;;;;;964.78;705.33;;;;;;;;;;7343747;19;20708;-25
2024/02/01 01:53:08;;;;;;;960.92;703.10;;;;;;;;;;7324563;19;20329;-23
2024/02/01 01:55:37;;;;;;;958.70;702.08;;;;;;;;;;7346313;19;20652;-23
2024/02/01 01:58:07;;;;;;;955.22;701.88;;;;;;;;;;7320683;19;20379;-24
2024/02/01 02:00:37;;;;;;;954.60;697.97;;;;;;;;;;7345282;19;20347;-27
2024/02/01 02:03:10;;;;;;;940.00;694.10;;;;;;;;;;7324156;19;20347;-27
2024/02/01 02:05:40;;;;;;;940.90;691.20;;;;;;;;;;7345817;19;20339;-22
2024/02/01 02:08:10;;;;;;;939.70;692.25;;;;;;;;;;7324426;19;20718;-23
2024/02/01 02:10:40;;;;;;;935.80;687.70;;;;;;;;;;7345083;19;20368;-28
2024/02/01 02:13:11;;;;;;;936.10;686.50;;;;;;;;;;7325049;19;20308;-25
2024/02/01 02:15:41;;;;;;;920.22;679.92;;;;;;;;;;7345848;19;20301;-24
2024/02/01 02:18:13;;;;;;;928.63;686.45;;;;;;;;;;7324251;19;20374;-31
2024/02/01 02:20:46;;;;;;;917.47;675.17;;;;;;;;;;7344667;19;20325;-22
2024/02/01 02:23:18;;;;;;;907.58;668.90;;;;;;;;;;7323620;19;20325;-25
2024/02/01 02:25:50;;;;;;;903.53;670.90;;;;;;;;;;7323391;19;20689;-22
2024/02/01 02:28:21;;;;;;;901.45;669.45;;;;;;;;;;7344450;19;20301;-24
2024/02/01 02:30:50;;;;;;;899.60;664.85;;;;;;;;;;7321308;19;20337;-24
2024/02/01 02:33:19;;;;;;;893.10;659.20;;;;;;;;;;7343707;19;20416;-23
2024/02/01 02:35:52;;;;;;;890.37;657.47;;;;;;;;;;7322649;19;20364;-30
2024/02/01 02:38:25;;;;;;;883.00;649.17;;;;;;;;;;7351199;19;20377;-24
2024/02/01 02:40:54;;;;;;;884.33;651.10;;;;;;;;;;7329105;19;20351;-26
2024/02/01 02:43:24;;;;;;;883.47;649.00;;;;;;;;;;7351163;19;20354;-25
2024/02/01 02:45:53;;;;;;;875.70;651.15;;;;;;;;;;7329329;19;20735;-26
2024/02/01 02:48:22;;;;;;;874.30;649.40;;;;;;;;;;7353475;19;20336;-26
2024/02/01 02:50:52;;;;;;;867.88;647.72;;;;;;;;;;7327522;19;20851;-25
2024/02/01 02:53:21;;;;;;;863.88;641.13;;;;;;;;;;7349986;19;20303;-26
2024/02/01 02:55:54;;;;;;;863.07;641.60;;;;;;;;;;7324822;19;20662;-23
2024/02/01 02:58:24;;;;;;;853.13;635.65;;;;;;;;;;7350767;19;20305;-25
2024/02/01 03:00:53;;;;;;;859.60;637.83;;;;;;;;;;7327557;19;20421;-24
2024/02/01 03:03:23;;;;;;;851.85;634.22;;;;;;;;;;7350086;19;20304;-25
2024/02/01 03:05:52;;;;;;;851.00;632.88;;;;;;;;;;7328651;19;20329;-25
2024/02/01 03:08:22;;;;;;;846.53;629.65;;;;;;;;;;7350560;19;20662;-26
2024/02/01 03:10:54;;;;;;;842.00;620.95;;;;;;;;;;7327836;19;20332;-24
2024/02/01 03:13:23;;;;;;;838.75;621.70;;;;;;;;;;7350082;19;20305;-24
2024/02/01 03:15:53;;;;;;;832.15;617.40;;;;;;;;;;7328199;19;20694;-25
2024/02/01 03:18:24;;;;;;;830.58;618.38;;;;;;;;;;7350498;19;20331;-24
2024/02/01 03:20:55;;;;;;;828.35;616.08;;;;;;;;;;7327697;19;20341;-25
2024/02/01 03:23:27;;;;;;;823.75;611.30;;;;;;;;;;7349129;19;20301;-25
2024/02/01 03:25:59;;;;;;;819.50;610.92;;;;;;;;;;7328947;19;20333;-24
2024/02/01 03:28:30;;;;;;;818.78;607.20;;;;;;;;;;7349846;19;20305;-25
2024/02/01 03:31:01;;;;;;;820.10;607.20;;;;;;;;;;7326794;19;20434;-24
2024/02/01 03:33:38;;;;;;;815.67;604.92;;;;;;;;;;7350318;19;20319;-24
2024/02/01 03:36:09;;;;;;;810.60;598.63;;;;;;;;;;7327819;19;21226;-25
2024/02/01 03:38:40;;;;;;;810.17;596.37;;;;;;;;;;7350466;19;20320;-27
2024/02/01 03:41:12;;;;;;;811.30;596.78;;;;;;;;;;7328696;19;20292;-23
2024/02/01 03:43:41;;;;;;;803.10;593.10;;;;;;;;;;7350646;19;20348;-23
2024/02/01 03:46:14;;;;;;;796.28;589.72;;;;;;;;;;7329287;19;21156;-25
2024/02/01 03:48:43;;;;;;;797.03;592.03;;;;;;;;;;7346934;19;20381;-21
2024/02/01 03:51:15;;;;;;;793.38;584.53;;;;;;;;;;7349521;19;20724;-22
2024/02/01 03:53:45;;;;;;;791.08;580.72;;;;;;;;;;7335586;19;20304;-24
2024/02/01 03:56:23;;;;;;;788.10;582.83;;;;;;;;;;7350765;19;20296;-26
2024/02/01 03:58:53;;;;;;;786.72;579.80;;;;;;;;;;7326999;19;20325;-27
2024/02/01 04:01:24;;;;;;;777.47;573.43;;;;;;;;;;7348343;19;20293;-25
2024/02/01 04:03:54;;;;;;;785.45;577.25;;;;;;;;;;7325890;19;20374;-24
2024/02/01 04:06:24;;;;;;;777.13;569.03;;;;;;;;;;7349253;19;20751;-23
2024/02/01 04:08:54;;;;;;;772.47;571.90;;;;;;;;;;7327116;19;20674;-26
2024/02/01 04:11:29;;;;;;;772.20;566.35;;;;;;;;;;7349184;19;20326;-23
2024/02/01 04:13:59;;;;;;;766.85;562.45;;;;;;;;;;7326310;19;20356;-28
2024/02/01 04:16:29;;;;;;;762.63;562.58;;;;;;;;;;7349336;19;20428;-28
2024/02/01 04:18:59;;;;;;;759.83;563.77;;;;;;;;;;7327237;19;20735;-27
2024/02/01 04:21:29;;;;;;;759.78;554.97;;;;;;;;;;7347143;19;20297;-24
2024/02/01 04:24:02;;;;;;;760.33;561.70;;;;;;;;;;7326060;19;20329;-24
2024/02/01 04:26:35;;;;;;;758.13;556.55;;;;;;;;;;7348652;19;20308;-23
2024/02/01 04:29:05;;;;;;;754.67;555.45;;;;;;;;;;7326074;19;20305;-27
2024/02/01 04:31:34;;;;;;;747.00;549.03;;;;;;;;;;7347484;19;20372;-24
2024/02/01 04:34:04;;;;;;;746.33;553.13;;;;;;;;;;7326500;19;20953;-24
2024/02/01 04:36:34;;;;;;;746.30;546.13;;;;;;;;;;7349585;19;20336;-24
2024/02/01 04:39:08;;;;;;;741.63;543.85;;;;;;;;;;7322054;19;20868;-21
2024/02/01 04:41:42;;;;;;;772.13;568.90;;;;;;;;;;7349955;19;20309;-25
2024/02/01 04:44:12;;;;;;;816.38;606.75;;;;;;;;;;7327558;19;20293;-22
2024/02/01 04:46:41;;;;;;;825.85;612.17;;;;;;;;;;7347760;19;20387;-26
2024/02/01 04:49:14;;;;;;;850.00;633.22;;;;;;;;;;7327251;19;20742;-25
2024/02/01 04:51:44;;;;;;;898.85;662.63;;;;;;;;;;7346842;19;20385;-23
2024/02/01 04:54:13;;;;;;;939.47;696.22;;;;;;;;;;7347327;19;20312;-24
2024/02/01 04:56:46;;;;;;;928.63;686.55;;;;;;;;;;7348892;19;20400;-30
2024/02/01 04:59:15;;;;;;;794.05;582.25;;;;;;;;;;7324852;19;20293;-25
2024/02/01 05:01:44;;;;;;;788.65;573.08;;;;;;;;;;7336077;19;20304;-30
2024/02/01 05:04:15;;;;;;;774.53;557.20;;;;;;;;;;7345906;19;20332;-26
2024/02/01 05:06:44;;;;;;;804.75;576.97;;;;;;;;;;7329173;19;20725;-22
2024/02/01 05:09:27;;;;;;;755.00;530.75;;;;;;;;;;7325214;19;20327;-25
2024/02/01 05:11:59;;;;;;;682.97;465.80;;;;;;;;;;7322823;19;21204;-24
2024/02/01 05:14:28;;;;;;;648.93;438.43;;;;;;;;;;7345211;19;20300;-25
2024/02/01 05:16:58;;;;;;;647.75;432.17;;;;;;;;;;7321940;19;20325;-25
2024/02/01 05:19:27;;;;;;;618.22;403.15;;;;;;;;;;7341916;19;20337;-24
2024/02/01 05:21:57;;;;;;;584.55;375.42;;;;;;;;;;7321147;19;20396;-23
2024/02/01 05:24:28;;;;;;;613.97;402.52;;;;;;;;;;7341646;19;20332;-29
2024/02/01 05:27:07;;;;;;;572.78;361.35;;;;;;;;;;7312335;19;20321;-23
2024/02/01 05:29:39;;;;;;;569.38;356.75;;;;;;;;;;7344605;19;20357;-23
2024/02/01 05:32:09;;;;;;;541.35;335.17;;;;;;;;;;7310532;19;20344;-26
2024/02/01 05:34:38;;;;;;;508.65;300.13;;;;;;;;;;7321949;19;20360;-29
2024/02/01 05:37:08;;;;;;;490.13;282.73;;;;;;;;;;7299698;19;20329;-36
2024/02/01 05:39:44;;;;;;;457.35;248.63;;;;;;;;;;7327752;19;20428;-28
2024/02/01 05:42:16;;;;;;;439.08;228.57;;;;;;;;;;7317288;19;20311;-32
2024/02/01 05:44:46;;;;;;;391.77;202.93;;;;;;;;;;7317920;19;20332;-30
2024/02/01 05:47:16;;;;;;;373.75;188.98;;;;;;;;;;7339514;19;20318;-29
2024/02/01 05:49:46;;;;;;;330.63;162.63;;;;;;;;;;7324259;19;20370;-26
2024/02/01 05:52:16;;;;;;;305.63;148.35;;;;;;;;;;7339734;19;21283;-27
2024/02/01 05:54:45;;;;;;;276.48;135.55;;;;;;;;;;7320891;19;20899;-29
2024/02/01 05:57:17;;;;;;;259.45;121.65;;;;;;;;;;7342523;19;20301;-30
2024/02/01 05:59:47;;;;;;;228.50;109.68;;;;;;;;;;7320718;19;20296;-30
2024/02/01 06:02:16;;;;;;;218.18;106.55;;;;;;;;;;7342104;19;20300;-33
2024/02/01 06:04:46;;;;;;;192.68;90.90;;;;;;;;;;7320346;19;20329;-29
2024/02/01 06:07:15;;;;;;;174.83;80.60;;;;;;;;;;7343202;19;20311;-28
2024/02/01 06:09:45;;;;;;;161.57;73.93;;;;;;;;;;7332102;19;20297;-26
2024/02/01 06:12:14;;;;;;;147.88;66.75;;;;;;;;;;7340952;19;20808;-30
2024/02/01 06:14:47;;;;;;;147.38;67.05;;;;;;;;;;7340843;19;20321;-27
2024/02/01 06:17:16;;;;;;;129.82;58.03;;;;;;;;;;7343078;19;20392;-25
2024/02/01 06:19:46;;;;;;;126.95;56.45;;;;;;;;;;7322495;19;20412;-25
2024/02/01 06:22:15;;;;;;;116.65;50.33;;;;;;;;;;7342514;19;20288;-29
2024/02/01 06:24:44;;;;;;;107.25;47.42;;;;;;;;;;7336012;19;20311;-26
2024/02/01 06:27:14;;;;;;;92.55;42.20;;;;;;;;;;7342916;19;21256;-26
2024/02/01 06:29:43;;;;;;;83.57;38.17;;;;;;;;;;7343142;19;20678;-28
2024/02/01 06:32:19;;;;;;;87.05;39.38;;;;;;;;;;7321290;19;20919;-26
2024/02/01 06:34:54;;;;;;;80.13;35.90;;;;;;;;;;7318448;19;20304;-28
2024/02/01 06:37:28;;;;;;;74.75;34.40;;;;;;;;;;7342492;19;20312;-28
2024/02/01 06:40:26;;;;;;;65.25;30.30;;;;;;;;;;7320555;19;20412;-33
2024/02/01 06:43:08;;;;;;;71.10;27.33;;;;;;;;;;7320565;19;20348;-26
2024/02/01 06:45:45;;;;;;;59.22;25.42;;;;;;;;;;7341841;19;20367;-27
2024/02/01 06:48:22;;;;;;;50.40;20.87;;;;;;;;;;7323456;19;20772;-27
2024/02/01 06:50:57;;;;;;;52.13;20.93;;;;;;;;;;7320758;19;20441;-32
2024/02/01 06:53:33;;;;;;;44.90;18.63;;;;;;;;;;7343721;19;20397;-27
2024/02/01 06:56:07;;;;;;;47.50;17.47;;;;;;;;;;7321839;19;20488;-24
2024/02/01 06:58:47;;;;;;;42.57;16.00;;;;;;;;;;7344128;19;20515;-26
2024/02/01 07:01:51;;;;;;;41.53;16.13;;;;;;;;;;7322239;19;20768;-29
2024/02/01 07:04:31;;;;;;;37.27;13.77;;;;;;;;;;7321886;19;20943;-28
2024/02/01 07:09:57;;;;;;;32.63;12.33;;;;;;;;;;7326637;19;20499;-30
2024/02/01 07:12:39;;;;;;;31.23;11.10;;;;;;;;;;7343761;19;20828;-27
2024/02/01 07:15:30;;;;;;;34.00;11.27;;;;;;;;;;7322075;19;20399;-29
2024/02/01 07:17:59;;;;;;;33.30;10.57;;;;;;;;;;7321013;19;20503;-31
2024/02/01 07:20:46;;;;;;;30.87;10.27;;;;;;;;;;7342389;19;20461;-32
2024/02/01 07:26:16;;;;;;;35.53;9.63;;;;;;;;;;7327881;19;20446;-27
2024/02/01 07:58:38;;;;;;;27.03;7.47;;;;;;;;;;7349031;19;20511;-24
2024/02/01 08:01:14;;;;;;;24.70;5.93;;;;;;;;;;7326264;19;20407;-29
2024/02/01 08:04:01;;;;;;;29.07;6.57;;;;;;;;;;7349229;19;20411;-28
2024/02/01 08:09:16;;;;;;;24.37;6.57;;;;;;;;;;7328344;19;20405;-33
2024/02/01 08:11:45;;;;;;;26.90;5.43;;;;;;;;;;7331259;19;20433;-24
2024/02/01 08:14:16;;;;;;;22.83;5.43;;;;;;;;;;7347933;19;20397;-27
2024/02/01 08:16:46;;;;;;;21.47;5.20;;;;;;;;;;7335105;19;20418;-25
2024/02/01 08:19:20;;;;;;;25.53;5.47;;;;;;;;;;7350091;19;20426;-28
2024/02/01 08:21:53;;;;;;;25.80;5.70;;;;;;;;;;7325203;19;20425;-29
2024/02/01 08:24:26;;;;;;;17.07;4.77;;;;;;;;;;7346035;19;20419;-27
2024/02/01 08:26:56;;;;;;;19.20;5.17;;;;;;;;;;7327388;19;20423;-29
2024/02/01 08:29:35;;;;;;;20.33;6.00;;;;;;;;;;7344717;19;20309;-30
2024/02/01 08:32:06;;;;;;;32.20;11.77;;;;;;;;;;7322958;19;20957;-30
2024/02/01 08:34:38;;;;;;;184.63;87.22;;;;;;;;;;7345228;19;20873;-34
2024/02/01 08:37:09;;;;;;;344.08;162.07;;;;;;;;;;7327426;19;20679;-34
2024/02/01 08:39:45;;;;;;;292.60;137.80;;;;;;;;;;7348950;19;20855;-34
2024/02/01 08:42:16;;;;;;;331.05;159.02;;;;;;;;;;7326805;19;20305;-36
2024/02/01 08:44:45;;;;;;;440.52;241.32;;;;;;;;;;7333997;19;20312;-34
2024/02/01 08:47:18;;;;;;;490.30;275.80;;;;;;;;;;7347861;19;20293;-35
2024/02/01 08:49:48;;;;;;;547.42;336.23;;;;;;;;;;7325724;19;20332;-30
2024/02/01 08:52:17;;;;;;;609.15;388.23;;;;;;;;;;7347278;19;20301;-36
2024/02/01 08:54:49;;;;;;;684.40;460.33;;;;;;;;;;7322260;19;20301;-35
2024/02/01 08:57:19;;;;;;;718.40;490.63;;;;;;;;;;7346113;19;20328;-35
2024/02/01 08:59:48;;;;;;;722.35;502.10;;;;;;;;;;7325418;19;20341;-31
2024/02/01 09:02:18;;;;;;;740.45;514.95;;;;;;;;;;7349335;19;20297;-35
2024/02/01 09:04:52;;;;;;;734.35;520.60;;;;;;;;;;7322807;19;20307;-34
2024/02/01 09:07:22;;;;;;;752.22;536.95;;;;;;;;;;7345902;19;20324;-30
2024/02/01 09:09:54;;;;;;;834.10;596.05;;;;;;;;;;7324990;19;20713;-34
2024/02/01 09:12:24;;;;;;;813.22;589.38;;;;;;;;;;7347452;19;20324;-32
2024/02/01 09:14:54;;;;;;;849.25;613.45;;;;;;;;;;7325897;19;20694;-33
2024/02/01 09:17:23;;;;;;;861.33;619.80;;;;;;;;;;7349566;19;20303;-32
2024/02/01 09:19:53;;;;;;;899.08;649.30;;;;;;;;;;7326552;19;20319;-32
2024/02/01 09:22:22;;;;;;;897.78;652.10;;;;;;;;;;7347319;19;20296;-30
2024/02/01 09:24:54;;;;;;;914.00;663.53;;;;;;;;;;7324482;19;20320;-34
2024/02/01 09:27:24;;;;;;;944.53;684.33;;;;;;;;;;7347407;19;20301;-32
2024/02/01 09:29:53;;;;;;;1001.95;721.58;;;;;;;;;;7325206;19;20334;-33
2024/02/01 09:32:23;;;;;;;1019.90;735.95;;;;;;;;;;7347210;19;20309;-33
2024/02/01 09:34:52;;;;;;;1019.80;737.23;;;;;;;;;;7321939;19;20339;-36
2024/02/01 09:37:22;;;;;;;1035.25;746.35;;;;;;;;;;7348155;19;20840;-30
2024/02/01 09:40:00;;;;;;;1035.35;745.22;;;;;;;;;;7323853;19;20336;-32
2024/02/01 09:42:29;;;;;;;1035.10;746.13;;;;;;;;;;7347432;19;20734;-33
2024/02/01 09:44:59;;;;;;;1033.05;741.17;;;;;;;;;;7323088;19;20336;-36
2024/02/01 09:47:29;;;;;;;1062.20;762.78;;;;;;;;;;7345492;19;20328;-28
2024/02/01 09:50:00;;;;;;;1094.90;775.47;;;;;;;;;;7324749;19;20320;-33
2024/02/01 09:52:30;;;;;;;1097.63;781.13;;;;;;;;;;7346167;19;20704;-33
2024/02/01 09:55:05;;;;;;;1123.57;798.47;;;;;;;;;;7322839;19;20459;-30
2024/02/01 09:57:40;;;;;;;1152.20;816.47;;;;;;;;;;7344258;19;20308;-28
2024/02/01 10:00:14;;;;;;;1159.95;821.13;;;;;;;;;;7320079;19;20348;-33
2024/02/01 10:02:45;;;;;;;1190.10;833.97;;;;;;;;;;7340533;19;20885;-24
2024/02/01 10:05:15;;;;;;;1214.77;844.10;;;;;;;;;;7346769;19;20321;-29
2024/02/01 10:07:47;;;;;;;1240.50;854.78;;;;;;;;;;7325946;19;20400;-31
2024/02/01 10:10:20;;;;;;;1223.43;847.85;;;;;;;;;;7347609;19;20332;-32
2024/02/01 10:12:50;;;;;;;1217.32;847.25;;;;;;;;;;7325037;19;20342;-32
2024/02/01 10:15:26;;;;;;;1208.27;837.80;;;;;;;;;;7345006;19;20394;-33
2024/02/01 10:17:56;;;;;;;1188.18;833.40;;;;;;;;;;7323191;19;20305;-38
2024/02/01 10:20:38;;;;;;;1186.63;834.33;;;;;;;;;;7345085;19;20683;-34
2024/02/01 10:23:09;;;;;;;1173.15;824.65;;;;;;;;;;7325484;19;20436;-33
2024/02/01 10:25:46;;;;;;;1165.50;826.13;;;;;;;;;;7344989;19;20324;-35
2024/02/01 10:28:17;;;;;;;1162.30;823.70;;;;;;;;;;7327244;19;20325;-35
2024/02/01 10:30:47;;;;;;;1157.90;819.05;;;;;;;;;;7322327;19;20324;-30
2024/02/01 10:33:17;;;;;;;1155.25;820.70;;;;;;;;;;7345148;19;20297;-35
2024/02/01 10:35:51;;;;;;;1147.57;812.75;;;;;;;;;;7322472;19;20322;-34
2024/02/01 10:38:23;;;;;;;1145.65;814.50;;;;;;;;;;7347593;19;20844;-35
2024/02/01 10:41:10;;;;;;;1134.80;809.58;;;;;;;;;;7323415;19;20352;-31
2024/02/01 10:43:44;;;;;;;1123.93;803.72;;;;;;;;;;7345259;19;20376;-33
2024/02/01 10:46:15;;;;;;;1128.75;803.97;;;;;;;;;;7324646;19;20884;-31
2024/02/01 10:48:45;;;;;;;1115.45;799.03;;;;;;;;;;7341304;19;20375;-31
2024/02/01 10:51:15;;;;;;;1104.50;796.20;;;;;;;;;;7346415;19;20313;-31
2024/02/01 10:53:46;;;;;;;1104.53;794.88;;;;;;;;;;7336975;19;20365;-34
2024/02/01 10:56:19;;;;;;;1094.22;787.20;;;;;;;;;;7344727;19;20308;-37
2024/02/01 10:58:51;;;;;;;1096.93;786.33;;;;;;;;;;7330122;19;20340;-30
2024/02/01 11:01:24;;;;;;;1093.72;791.75;;;;;;;;;;7351688;19;20346;-28
2024/02/01 11:03:54;;;;;;;1080.03;783.72;;;;;;;;;;7331114;19;20959;-32
2024/02/01 11:06:26;;;;;;;1078.68;784.22;;;;;;;;;;7352712;19;20308;-34
2024/02/01 11:08:56;;;;;;;1065.78;773.63;;;;;;;;;;7329468;19;20848;-31
2024/02/01 11:11:34;;;;;;;1068.68;776.13;;;;;;;;;;7350383;19;20303;-36
2024/02/01 11:14:10;;;;;;;1065.05;773.95;;;;;;;;;;7328528;19;20339;-30
2024/02/01 11:16:40;;;;;;;1062.07;768.60;;;;;;;;;;7352599;19;20365;-31
2024/02/01 11:19:12;;;;;;;1050.30;765.60;;;;;;;;;;7331772;19;20348;-37
2024/02/01 11:21:51;;;;;;;1037.93;763.65;;;;;;;;;;7350567;19;20905;-31
2024/02/01 11:24:22;;;;;;;1039.70;761.88;;;;;;;;;;7329789;19;20904;-27
2024/02/01 11:26:57;;;;;;;1032.15;756.00;;;;;;;;;;7331661;19;20315;-32
2024/02/01 11:29:27;;;;;;;1025.10;752.10;;;;;;;;;;7350811;19;20300;-34
2024/02/01 11:32:00;;;;;;;1022.90;754.30;;;;;;;;;;7327318;19;20384;-28
2024/02/01 11:34:30;;;;;;;1016.83;748.60;;;;;;;;;;7350836;19;20324;-35
2024/02/01 11:37:04;;;;;;;1014.33;746.88;;;;;;;;;;7327465;19;20332;-31
2024/02/01 11:39:34;;;;;;;1010.45;744.83;;;;;;;;;;7350426;19;20670;-30
2024/02/01 11:42:06;;;;;;;1002.85;738.10;;;;;;;;;;7329134;19;20353;-30
2024/02/01 11:44:44;;;;;;;991.22;733.65;;;;;;;;;;7345376;19;20685;-27
2024/02/01 11:47:15;;;;;;;983.80;730.28;;;;;;;;;;7350361;19;20316;-35
2024/02/01 11:49:49;;;;;;;976.43;727.63;;;;;;;;;;7351437;19;20352;-32
2024/02/01 11:52:20;;;;;;;974.38;724.47;;;;;;;;;;7327922;19;20313;-33
2024/02/01 11:54:52;;;;;;;971.63;726.75;;;;;;;;;;7326933;19;20316;-34
2024/02/01 11:57:25;;;;;;;974.05;722.85;;;;;;;;;;7349161;19;20486;-33
2024/02/01 11:59:55;;;;;;;955.92;714.50;;;;;;;;;;7327549;19;21181;-32
2024/02/01 12:02:30;;;;;;;953.93;712.57;;;;;;;;;;7348015;19;20304;-34
2024/02/01 12:05:05;;;;;;;962.17;710.20;;;;;;;;;;7325267;19;20693;-30
2024/02/01 12:07:35;;;;;;;949.17;707.35;;;;;;;;;;7350028;19;20641;-35
2024/02/01 12:10:10;;;;;;;945.42;702.42;;;;;;;;;;7324860;19;20299;-35
2024/02/01 12:12:44;;;;;;;936.40;697.58;;;;;;;;;;7348320;19;20308;-32
2024/02/01 12:15:15;;;;;;;935.80;696.13;;;;;;;;;;7326439;19;20324;-33
2024/02/01 12:17:45;;;;;;;926.92;696.03;;;;;;;;;;7340602;19;20300;-29
2024/02/01 12:20:15;;;;;;;921.78;696.10;;;;;;;;;;7347994;19;20974;-33
2024/02/01 12:22:47;;;;;;;918.88;687.03;;;;;;;;;;7341222;19;20368;-33
2024/02/01 12:25:17;;;;;;;915.50;687.28;;;;;;;;;;7341750;19;20459;-29
2024/02/01 12:27:49;;;;;;;915.15;681.60;;;;;;;;;;7324452;19;20321;-30
2024/02/01 12:30:24;;;;;;;904.65;678.47;;;;;;;;;;7345116;19;20323;-30
2024/02/01 12:32:54;;;;;;;896.65;675.00;;;;;;;;;;7323041;19;20695;-29
2024/02/01 12:35:24;;;;;;;926.30;697.63;;;;;;;;;;7344831;19;20305;-29
2024/02/01 12:37:55;;;;;;;1025.03;756.38;;;;;;;;;;7324665;19;20846;-30
2024/02/01 12:40:24;;;;;;;992.10;733.60;;;;;;;;;;7346179;19;20304;-30
2024/02/01 12:43:01;;;;;;;1019.90;751.88;;;;;;;;;;7318556;19;20392;-30
2024/02/01 12:45:30;;;;;;;1026.93;761.50;;;;;;;;;;7345300;19;20301;-29
2024/02/01 12:48:00;;;;;;;1016.85;752.58;;;;;;;;;;7323162;19;20332;-28
2024/02/01 12:50:38;;;;;;;1017.08;750.75;;;;;;;;;;7345823;19;20345;-30
2024/02/01 12:53:09;;;;;;;1007.97;746.97;;;;;;;;;;7324316;19;20312;-28
2024/02/01 12:55:38;;;;;;;997.80;742.50;;;;;;;;;;7343724;19;20300;-29
2024/02/01 12:58:10;;;;;;;1004.40;746.05;;;;;;;;;;7323712;19;20333;-30
2024/02/01 13:00:39;;;;;;;998.17;739.97;;;;;;;;;;7346723;19;20324;-30
2024/02/01 13:03:09;;;;;;;984.00;732.92;;;;;;;;;;7322819;19;20300;-29
2024/02/01 13:05:38;;;;;;;980.27;729.80;;;;;;;;;;7342832;19;20324;-29
2024/02/01 13:08:14;;;;;;;979.10;730.92;;;;;;;;;;7321635;19;20945;-31
2024/02/01 13:10:44;;;;;;;980.15;728.65;;;;;;;;;;7345298;19;20304;-30
2024/02/01 13:13:16;;;;;;;969.90;728.13;;;;;;;;;;7323438;19;20336;-30
2024/02/01 13:15:48;;;;;;;961.50;718.22;;;;;;;;;;7330460;19;20711;-29
2024/02/01 13:18:18;;;;;;;953.63;715.17;;;;;;;;;;7344879;19;20301;-29
2024/02/01 13:20:49;;;;;;;951.73;713.10;;;;;;;;;;7319486;19;20325;-30
2024/02/01 13:23:19;;;;;;;952.42;715.08;;;;;;;;;;7343962;19;20324;-28
2024/02/01 13:25:48;;;;;;;943.08;707.85;;;;;;;;;;7321783;19;20333;-28
2024/02/01 13:28:20;;;;;;;935.97;706.53;;;;;;;;;;7344219;19;20304;-30
2024/02/01 13:30:50;;;;;;;936.73;699.90;;;;;;;;;;7321876;19;20372;-30
2024/02/01 13:33:19;;;;;;;929.67;695.85;;;;;;;;;;7343402;19;20831;-30
2024/02/01 13:35:49;;;;;;;926.10;695.78;;;;;;;;;;7320248;19;20376;-29
2024/02/01 13:38:18;;;;;;;917.72;690.65;;;;;;;;;;7344103;19;20324;-30
2024/02/01 13:40:48;;;;;;;916.90;687.37;;;;;;;;;;7321635;19;20309;-30
2024/02/01 13:43:20;;;;;;;909.22;682.28;;;;;;;;;;7343873;19;20325;-30
2024/02/01 13:45:50;;;;;;;915.40;686.42;;;;;;;;;;7321724;19;20303;-30
2024/02/01 13:48:20;;;;;;;903.30;683.67;;;;;;;;;;7342841;19;20392;-30
2024/02/01 13:50:50;;;;;;;896.08;673.97;;;;;;;;;;7320764;19;20325;-29
2024/02/01 13:53:20;;;;;;;895.88;674.17;;;;;;;;;;7344668;19;20345;-30
2024/02/01 13:55:50;;;;;;;885.08;669.42;;;;;;;;;;7319828;19;20400;-29
2024/02/01 13:58:22;;;;;;;881.58;663.78;;;;;;;;;;7342898;19;20844;-30
2024/02/01 14:00:51;;;;;;;885.97;667.33;;;;;;;;;;7320574;19;20379;-30
2024/02/01 14:03:27;;;;;;;879.73;666.30;;;;;;;;;;7342775;19;20300;-30
2024/02/01 14:05:57;;;;;;;872.50;660.42;;;;;;;;;;7320008;19;20340;-29
2024/02/01 14:08:27;;;;;;;864.08;655.55;;;;;;;;;;7343115;19;20321;-30
2024/02/01 14:10:57;;;;;;;859.28;651.15;;;;;;;;;;7320431;19;20380;-30
2024/02/01 14:13:29;;;;;;;858.10;646.72;;;;;;;;;;7342177;19;20305;-30
2024/02/01 14:15:58;;;;;;;856.00;647.08;;;;;;;;;;7318913;19;20388;-30
2024/02/01 14:18:28;;;;;;;847.05;646.97;;;;;;;;;;7342232;19;20329;-30
2024/02/01 14:21:00;;;;;;;847.45;641.80;;;;;;;;;;7321224;19;20301;-30
2024/02/01 14:23:30;;;;;;;834.05;634.92;;;;;;;;;;7342162;19;20307;-30
2024/02/01 14:26:00;;;;;;;844.20;634.23;;;;;;;;;;7320394;19;20344;-30
2024/02/01 14:28:32;;;;;;;835.50;630.97;;;;;;;;;;7342959;19;20329;-30
2024/02/01 14:31:01;;;;;;;830.67;627.23;;;;;;;;;;7321178;19;20337;-30
2024/02/01 14:33:30;;;;;;;830.47;630.15;;;;;;;;;;7347833;19;20308;-29
2024/02/01 14:36:00;;;;;;;819.88;619.33;;;;;;;;;;7323727;19;20904;-32
2024/02/01 14:38:30;;;;;;;820.00;620.83;;;;;;;;;;7351373;19;20336;-31
2024/02/01 14:40:59;;;;;;;814.25;619.13;;;;;;;;;;7326579;19;20405;-30
2024/02/01 14:43:28;;;;;;;873.10;661.78;;;;;;;;;;7349664;19;20315;-30
2024/02/01 14:46:00;;;;;;;931.80;699.45;;;;;;;;;;7325971;19;20383;-30
2024/02/01 14:48:30;;;;;;;1004.15;746.67;;;;;;;;;;7349254;19;20354;-30
2024/02/01 14:51:00;;;;;;;994.47;741.38;;;;;;;;;;7326771;19;21429;-30
2024/02/01 14:53:29;;;;;;;984.92;733.22;;;;;;;;;;7349693;19;20391;-30